Time;durP1;ratioP1;P1;durP2;ratioP2;P2;SDS_P1;SDS_P2;PMS_P1;PMS_P2;Temp;Humidity;BMP_temperature;BMP_pressure;BME280_temperature;BME280_humidity;BME280_pressure;Samples;Min_cycle;Max_cycle;Signal;HPM_P1;HPM_P2
2022/12/12 00:00:38;;;;;;;51.40;23.63;;;;;;;-2.85;69.80;100277.41;6166392;23;20005;-68
2022/12/12 00:03:05;;;;;;;50.90;23.33;;;;;;;-2.86;69.34;100273.94;6179343;23;20061;-68
2022/12/12 00:05:31;;;;;;;55.25;23.70;;;;;;;-3.06;70.48;100271.56;6180219;23;20013;-69
2022/12/12 00:07:58;;;;;;;52.28;24.52;;;;;;;-3.04;70.57;100267.06;6180394;23;20005;-68
2022/12/12 00:10:24;;;;;;;48.95;24.17;;;;;;;-3.04;70.14;100269.69;6180020;23;20017;-70
2022/12/12 00:12:51;;;;;;;47.58;22.95;;;;;;;-2.98;70.19;100269.34;6180153;23;20041;-70
2022/12/12 00:15:18;;;;;;;48.80;23.15;;;;;;;-3.02;69.87;100262.59;6180809;23;20021;-67
2022/12/12 00:17:44;;;;;;;50.38;23.55;;;;;;;-3.54;71.57;100249.69;6180982;23;20069;-68
2022/12/12 00:20:11;;;;;;;55.83;24.08;;;;;;;-3.56;71.82;100246.28;6166174;23;20032;-68
2022/12/12 00:22:37;;;;;;;49.70;23.33;;;;;;;-3.83;73.03;100233.72;6179994;23;20061;-68
2022/12/12 00:25:04;;;;;;;51.13;24.45;;;;;;;-3.72;73.52;100221.78;6180266;23;20021;-68
2022/12/12 00:27:32;;;;;;;49.70;21.52;;;;;;;-3.50;72.37;100230.22;6180023;23;20005;-69
2022/12/12 00:29:58;;;;;;;48.63;22.65;;;;;;;-3.31;71.86;100238.81;6180404;23;20061;-69
2022/12/12 00:32:25;;;;;;;49.30;21.65;;;;;;;-3.30;71.55;100245.72;6180070;23;20062;-71
2022/12/12 00:34:52;;;;;;;47.03;21.77;;;;;;;-3.33;71.62;100252.91;6180794;23;20033;-70
2022/12/12 00:37:18;;;;;;;53.05;22.92;;;;;;;-3.35;71.52;100260.00;6180777;23;20033;-68
2022/12/12 00:39:45;;;;;;;49.47;22.77;;;;;;;-3.23;71.21;100258.53;6180228;23;20057;-67
2022/12/12 00:42:11;;;;;;;51.90;23.55;;;;;;;-3.28;71.45;100256.97;6178061;23;20028;-67
2022/12/12 00:44:38;;;;;;;52.15;22.85;;;;;;;-3.12;71.11;100262.25;6180641;23;20029;-68
2022/12/12 00:47:05;;;;;;;49.40;22.80;;;;;;;-3.05;70.97;100255.72;6180144;23;20001;-68
2022/12/12 00:49:32;;;;;;;52.20;23.08;;;;;;;-3.30;71.53;100247.50;6179367;23;20005;-68
2022/12/12 00:51:58;;;;;;;52.03;23.88;;;;;;;-3.83;72.80;100245.94;6179565;23;20025;-68
2022/12/12 00:54:25;;;;;;;50.05;23.08;;;;;;;-3.33;72.41;100250.28;6179958;23;20057;-69
2022/12/12 00:56:51;;;;;;;50.97;23.02;;;;;;;-3.19;71.52;100252.16;6180957;23;20032;-70
2022/12/12 00:59:18;;;;;;;50.17;22.90;;;;;;;-3.15;71.41;100251.06;6167196;23;20021;-68
2022/12/12 01:01:45;;;;;;;50.58;23.02;;;;;;;-3.19;71.85;100250.38;6180237;23;20005;-67
2022/12/12 01:04:12;;;;;;;55.38;22.75;;;;;;;-3.17;71.76;100255.53;6180070;23;20049;-69
2022/12/12 01:06:39;;;;;;;53.88;23.48;;;;;;;-3.12;71.83;100256.16;6180316;23;20070;-68
2022/12/12 01:09:05;;;;;;;54.92;24.50;;;;;;;-3.16;71.91;100260.72;6179808;23;20040;-68
2022/12/12 01:11:32;;;;;;;54.78;23.67;;;;;;;-3.05;70.97;100260.13;6179498;23;20009;-68
2022/12/12 01:13:58;;;;;;;53.17;24.13;;;;;;;-3.11;71.18;100261.31;6179418;23;20021;-67
2022/12/12 01:16:25;;;;;;;53.67;24.10;;;;;;;-3.01;70.91;100263.44;6180780;23;20018;-68
2022/12/12 01:18:51;;;;;;;55.40;24.20;;;;;;;-3.03;70.79;100265.28;6178643;23;20009;-70
2022/12/12 01:21:19;;;;;;;60.20;25.17;;;;;;;-3.16;71.57;100262.50;6180313;23;20006;-68
2022/12/12 01:23:46;;;;;;;55.28;24.95;;;;;;;-3.12;71.54;100271.91;6164463;23;20044;-69
2022/12/12 01:26:16;;;;;;;56.03;24.30;;;;;;;-3.00;71.19;100263.34;6179551;23;20009;-68
2022/12/12 01:28:44;;;;;;;53.55;23.65;;;;;;;-3.02;71.46;100273.09;6179042;23;20060;-68
2022/12/12 01:31:11;;;;;;;59.75;24.90;;;;;;;-3.05;71.62;100270.63;6179082;23;20029;-71
2022/12/12 01:33:38;;;;;;;64.90;25.88;;;;;;;-3.08;71.46;100263.75;6179227;23;20011;-67
2022/12/12 01:36:06;;;;;;;59.50;24.73;;;;;;;-3.22;71.68;100268.06;6180034;23;20021;-68
2022/12/12 01:38:32;;;;;;;57.85;24.48;;;;;;;-3.07;71.80;100267.22;6179882;23;20031;-70
2022/12/12 01:40:59;;;;;;;61.25;25.02;;;;;;;-3.04;72.04;100269.69;6179490;23;20045;-72
2022/12/12 01:43:27;;;;;;;60.70;24.25;;;;;;;-3.07;71.44;100269.84;6179961;23;20029;-69
2022/12/12 01:46:01;;;;;;;59.42;25.50;;;;;;;-3.18;72.36;100280.09;6179539;23;20044;-69
2022/12/12 01:48:29;;;;;;;54.47;23.77;;;;;;;-3.09;71.94;100284.84;6178674;23;20016;-69
2022/12/12 01:51:00;;;;;;;55.30;23.58;;;;;;;-3.13;72.19;100283.34;6179565;23;20032;-69
2022/12/12 01:53:30;;;;;;;53.13;24.38;;;;;;;-3.08;72.48;100281.28;6179417;23;20074;-72
2022/12/12 01:55:58;;;;;;;58.05;24.40;;;;;;;-2.92;71.53;100284.78;6178697;23;20016;-70
2022/12/12 01:58:25;;;;;;;57.65;24.50;;;;;;;-2.99;71.77;100272.91;6179144;23;20123;-70
2022/12/12 02:00:51;;;;;;;55.03;23.88;;;;;;;-2.94;72.10;100273.50;6179818;23;20005;-69
2022/12/12 02:03:18;;;;;;;61.05;24.40;;;;;;;-3.02;72.14;100272.25;6178933;23;20041;-68
2022/12/12 02:09:34;;;;;;;53.85;23.88;;;;;;;-2.98;72.38;100269.34;6179090;23;20176;-70
2022/12/12 02:12:01;;;;;;;55.10;23.08;;;;;;;-2.92;71.76;100269.03;6177609;23;20199;-68
2022/12/12 02:14:31;;;;;;;56.72;23.38;;;;;;;-2.84;71.51;100256.31;6179638;23;20013;-67
2022/12/12 02:17:25;;;;;;;59.78;25.55;;;;;;;-2.95;72.58;100248.19;6179568;23;20009;-68
2022/12/12 02:19:57;;;;;;;60.25;24.95;;;;;;;-3.13;72.67;100238.72;6178807;23;20096;-67
2022/12/12 02:22:57;;;;;;;62.35;23.55;;;;;;;-2.89;72.87;100239.97;6179414;23;20020;-69
2022/12/12 02:25:45;;;;;;;58.35;23.65;;;;;;;-2.89;72.31;100247.84;6177476;23;20081;-68
2022/12/12 02:28:53;;;;;;;54.47;22.50;;;;;;;-2.97;72.48;100260.53;6178798;23;20025;-68
2022/12/12 02:31:39;;;;;;;57.35;21.77;;;;;;;-2.99;72.54;100262.44;6170709;23;20029;-69
2022/12/12 02:34:34;;;;;;;56.15;23.83;;;;;;;-2.87;72.44;100264.34;6178991;23;20025;-71
2022/12/12 02:37:29;;;;;;;56.47;23.65;;;;;;;-2.99;72.41;100272.91;6179634;23;20050;-67
2022/12/12 02:40:09;;;;;;;57.33;23.00;;;;;;;-2.95;72.77;100268.34;6178722;23;20021;-68
2022/12/12 02:42:45;;;;;;;55.27;23.60;;;;;;;-2.92;72.46;100265.56;6178925;23;20061;-72
2022/12/12 02:45:36;;;;;;;51.13;22.50;;;;;;;-2.82;71.93;100264.13;6180335;23;20233;-68
2022/12/12 02:48:11;;;;;;;40.20;17.58;;;;;;;-2.94;72.97;100272.66;6176910;23;20005;-69
2022/12/12 02:50:39;;;;;;;56.33;22.45;;;;;;;-2.78;72.50;100270.88;6179490;23;20021;-71
2022/12/12 02:53:06;;;;;;;53.75;22.38;;;;;;;-2.73;72.54;100270.63;6179502;23;20029;-70
2022/12/12 02:55:32;;;;;;;56.50;23.98;;;;;;;-2.86;72.24;100276.56;6180317;23;20008;-67
2022/12/12 02:58:03;;;;;;;62.15;25.35;;;;;;;-2.96;73.21;100283.25;6177939;23;20022;-68
2022/12/12 03:00:39;;;;;;;60.58;24.50;;;;;;;-2.78;72.72;100277.91;6180471;23;20022;-68
2022/12/12 03:09:14;;;;;;;63.33;24.17;;;;;;;-2.85;73.38;100275.63;6177819;23;20069;-70
2022/12/12 03:12:02;;;;;;;58.75;24.02;;;;;;;-2.79;73.32;100263.91;6179549;23;20005;-69
2022/12/12 03:14:57;;;;;;;66.55;25.48;;;;;;;-2.60;72.71;100269.00;6179402;23;20061;-68
2022/12/12 03:17:33;;;;;;;60.85;25.05;;;;;;;-2.76;73.26;100281.28;6179430;23;20021;-69
2022/12/12 03:20:09;;;;;;;55.10;23.48;;;;;;;-2.63;73.18;100284.91;6173439;23;20045;-68
2022/12/12 03:22:44;;;;;;;59.40;24.45;;;;;;;-2.62;72.99;100281.34;6179387;23;20013;-67
2022/12/12 03:25:43;;;;;;;68.32;26.45;;;;;;;-2.49;72.34;100276.25;6178625;23;20025;-68
2022/12/12 03:28:17;;;;;;;61.38;26.15;;;;;;;-2.88;74.46;100275.78;6177929;23;20075;-68
2022/12/12 03:30:49;;;;;;;65.07;24.73;;;;;;;-2.71;74.02;100282.72;6177107;23;20022;-72
2022/12/12 03:33:29;;;;;;;63.55;24.85;;;;;;;-2.76;74.09;100289.16;6176098;23;20080;-69
2022/12/12 03:36:05;;;;;;;56.67;22.60;;;;;;;-2.76;74.45;100283.91;6179112;23;20017;-67
2022/12/12 03:38:36;;;;;;;60.53;24.58;;;;;;;-2.64;74.16;100285.84;6179638;23;20037;-67
2022/12/12 03:41:07;;;;;;;59.55;23.52;;;;;;;-2.55;73.96;100279.22;6179771;23;20017;-67
2022/12/12 03:43:43;;;;;;;58.78;23.88;;;;;;;-2.53;73.70;100278.22;6178998;23;20040;-68
2022/12/12 03:46:18;;;;;;;59.20;23.38;;;;;;;-2.42;73.20;100275.81;6181075;23;20005;-68
2022/12/12 03:48:50;;;;;;;63.35;23.08;;;;;;;-2.52;73.62;100279.91;6178364;23;20073;-70
2022/12/12 03:51:19;;;;;;;66.60;24.50;;;;;;;-2.55;73.98;100281.84;6180562;23;20025;-68
2022/12/12 03:53:51;;;;;;;66.82;23.85;;;;;;;-2.44;73.97;100279.44;6179577;23;20386;-70
2022/12/12 03:56:29;;;;;;;66.82;25.58;;;;;;;-2.35;73.41;100286.81;6180233;23;20081;-67
2022/12/12 03:59:08;;;;;;;63.40;25.38;;;;;;;-2.32;73.52;100291.91;6178845;23;20077;-68
2022/12/12 04:01:56;;;;;;;56.85;23.90;;;;;;;-2.60;74.26;100282.97;6180413;23;20032;-67
2022/12/12 04:04:31;;;;;;;62.33;22.63;;;;;;;-2.29;73.55;100285.63;6180307;23;20080;-68
2022/12/12 04:07:05;;;;;;;56.33;23.05;;;;;;;-2.39;74.23;100280.91;6171810;23;20041;-68
2022/12/12 04:12:57;;;;;;;52.30;23.17;;;;;;;-2.24;73.65;100291.44;6179835;23;20021;-70
2022/12/12 04:15:46;;;;;;;58.55;23.33;;;;;;;-2.25;73.77;100290.59;6179748;23;20032;-70
2022/12/12 04:18:28;;;;;;;65.30;23.45;;;;;;;-2.22;73.66;100285.19;6176702;23;20032;-68
2022/12/12 04:24:19;;;;;;;56.80;24.98;;;;;;;-2.26;73.55;100277.56;6178902;23;20026;-68
2022/12/12 04:26:59;;;;;;;55.78;23.80;;;;;;;-2.25;73.54;100276.63;6177574;23;20021;-67
2022/12/12 04:29:47;;;;;;;51.72;21.17;;;;;;;-2.42;73.93;100283.69;6180079;23;20049;-67
2022/12/12 04:32:36;;;;;;;57.53;22.20;;;;;;;-2.24;73.31;100280.94;6177684;23;20029;-67
2022/12/12 04:35:30;;;;;;;54.65;22.38;;;;;;;-2.12;72.81;100272.34;6169377;23;20013;-66
2022/12/12 04:38:01;;;;;;;49.83;21.38;;;;;;;-2.24;73.30;100280.94;6194863;23;20077;-67
2022/12/12 04:40:35;;;;;;;49.10;21.03;;;;;;;-2.11;73.19;100276.66;6180606;23;20476;-67
2022/12/12 04:43:32;;;;;;;45.80;19.80;;;;;;;-2.12;72.98;100281.09;6179955;23;20106;-67
2022/12/12 04:46:03;;;;;;;48.78;21.38;;;;;;;-2.06;72.77;100273.75;6177650;23;20077;-69
2022/12/12 04:48:36;;;;;;;42.70;19.95;;;;;;;-2.06;72.87;100282.53;6179539;23;20028;-67
2022/12/12 04:51:06;;;;;;;44.38;18.60;;;;;;;-2.00;72.59;100279.50;6178817;23;20025;-68
2022/12/12 04:53:38;;;;;;;46.28;19.35;;;;;;;-2.05;72.63;100276.31;6179877;23;20057;-67
2022/12/12 04:56:10;;;;;;;39.67;19.13;;;;;;;-2.01;72.86;100274.34;6179365;23;20022;-67
2022/12/12 04:58:38;;;;;;;39.65;19.13;;;;;;;-2.04;72.74;100278.00;6179994;23;20028;-69
2022/12/12 05:01:15;;;;;;;38.72;18.23;;;;;;;-2.05;73.03;100278.09;6179224;23;20033;-67
2022/12/12 05:03:51;;;;;;;39.70;18.67;;;;;;;-2.03;72.60;100277.06;6177614;23;20053;-67
2022/12/12 05:06:25;;;;;;;40.58;16.95;;;;;;;-2.11;73.21;100282.75;6178790;23;20036;-70
2022/12/12 05:08:54;;;;;;;34.90;17.33;;;;;;;-2.03;73.09;100281.47;6177496;23;20018;-69
2022/12/12 05:11:21;;;;;;;43.60;18.77;;;;;;;-2.04;72.89;100283.25;6179547;23;20067;-69
2022/12/12 05:13:48;;;;;;;42.33;18.35;;;;;;;-2.01;72.67;100287.50;6176811;23;20057;-70
2022/12/12 05:16:17;;;;;;;35.88;17.55;;;;;;;-2.25;73.47;100290.59;6179261;23;20033;-67
2022/12/12 05:18:44;;;;;;;35.75;17.75;;;;;;;-2.30;74.02;100286.53;6178708;23;20026;-67
2022/12/12 05:21:12;;;;;;;31.27;15.90;;;;;;;-2.41;73.92;100293.28;6179904;23;20014;-67
2022/12/12 05:23:38;;;;;;;31.67;16.48;;;;;;;-2.14;73.74;100290.81;6179093;23;20057;-67
2022/12/12 05:26:24;;;;;;;30.15;15.68;;;;;;;-1.99;72.81;100290.84;6178344;23;20032;-68
2022/12/12 05:28:50;;;;;;;31.77;15.18;;;;;;;-2.05;72.68;100297.34;6177161;23;20041;-71
2022/12/12 05:31:17;;;;;;;30.45;14.07;;;;;;;-2.24;73.34;100296.72;6179916;23;20045;-68
2022/12/12 05:33:44;;;;;;;26.17;13.32;;;;;;;-2.17;73.39;100298.03;6178984;23;20069;-69
2022/12/12 05:36:11;;;;;;;25.80;13.75;;;;;;;-2.29;73.43;100293.50;6178735;23;20025;-68
2022/12/12 05:38:38;;;;;;;26.75;13.10;;;;;;;-2.49;73.53;100298.13;6179694;23;20044;-67
2022/12/12 05:41:05;;;;;;;28.05;12.80;;;;;;;-2.25;73.10;100298.50;6179761;23;20017;-67
2022/12/12 05:43:32;;;;;;;23.27;12.48;;;;;;;-2.37;73.06;100297.44;6178208;23;20025;-67
2022/12/12 05:45:59;;;;;;;21.85;11.95;;;;;;;-2.25;73.08;100295.88;6178075;23;20015;-68
2022/12/12 05:48:26;;;;;;;24.10;11.10;;;;;;;-2.03;71.93;100294.59;6178902;23;20014;-68
2022/12/12 05:50:53;;;;;;;18.63;11.75;;;;;;;-2.27;72.53;100297.72;6177948;23;20065;-70
2022/12/12 05:53:19;;;;;;;22.33;11.45;;;;;;;-1.93;71.76;100301.88;6177756;23;20032;-71
2022/12/12 05:55:50;;;;;;;18.13;10.30;;;;;;;-1.97;71.88;100300.34;6179226;23;20060;-68
2022/12/12 05:58:18;;;;;;;18.00;11.00;;;;;;;-2.19;72.49;100300.78;6176451;23;20073;-69
2022/12/12 06:00:49;;;;;;;19.17;10.52;;;;;;;-2.15;72.10;100299.66;6178764;23;20045;-68
2022/12/12 06:03:17;;;;;;;17.30;10.38;;;;;;;-2.35;72.58;100300.78;6177314;23;20022;-67
2022/12/12 06:05:43;;;;;;;18.23;10.25;;;;;;;-2.18;71.90;100302.47;6178114;23;20029;-67
2022/12/12 06:08:10;;;;;;;20.40;10.35;;;;;;;-2.01;72.17;100298.84;6178241;23;20006;-67
2022/12/12 06:10:36;;;;;;;15.93;9.82;;;;;;;-2.14;71.86;100301.34;6178598;23;20029;-67
2022/12/12 06:13:03;;;;;;;17.55;9.43;;;;;;;-2.22;72.53;100303.56;6175812;23;20041;-67
2022/12/12 06:15:29;;;;;;;14.10;8.93;;;;;;;-2.23;72.31;100306.31;6178271;23;20037;-68
2022/12/12 06:17:57;;;;;;;18.23;8.75;;;;;;;-2.16;71.92;100302.38;6177998;23;20025;-68
2022/12/12 06:20:24;;;;;;;18.42;9.20;;;;;;;-2.14;72.16;100308.38;6178567;23;20033;-72
2022/12/12 06:22:50;;;;;;;15.38;9.23;;;;;;;-2.13;72.48;100310.06;6159412;23;20048;-71
2022/12/12 06:25:20;;;;;;;16.95;9.15;;;;;;;-2.29;72.67;100314.53;6178327;23;20025;-68
2022/12/12 06:27:46;;;;;;;15.07;8.90;;;;;;;-2.35;72.61;100310.47;6177440;23;20033;-67
2022/12/12 06:30:13;;;;;;;20.25;9.75;;;;;;;-2.38;72.67;100319.34;6178354;23;20025;-67
2022/12/12 06:32:40;;;;;;;32.90;14.45;;;;;;;-2.22;72.23;100311.47;6178115;23;20082;-68
2022/12/12 06:35:07;;;;;;;25.00;10.27;;;;;;;-2.36;72.32;100312.25;6151884;23;20047;-66
2022/12/12 06:37:34;;;;;;;22.58;9.70;;;;;;;-2.34;72.52;100328.78;6177173;23;20018;-67
2022/12/12 06:40:00;;;;;;;18.85;9.45;;;;;;;-2.23;72.22;100327.31;6177683;23;20021;-67
2022/12/12 06:42:27;;;;;;;15.82;8.88;;;;;;;-2.11;71.66;100330.06;6178357;23;20029;-71
2022/12/12 06:44:53;;;;;;;13.00;8.35;;;;;;;-2.12;71.46;100325.75;6177765;23;20028;-67
2022/12/12 06:47:20;;;;;;;15.35;8.93;;;;;;;-2.22;71.57;100331.63;6178805;23;20082;-68
2022/12/12 06:49:47;;;;;;;14.77;8.68;;;;;;;-2.27;71.84;100329.25;6177542;23;20027;-67
2022/12/12 06:52:13;;;;;;;16.13;8.52;;;;;;;-2.30;72.65;100333.84;6178734;23;20025;-68
2022/12/12 06:54:40;;;;;;;15.95;9.75;;;;;;;-2.33;72.51;100332.25;6178535;23;20025;-66
2022/12/12 06:57:06;;;;;;;15.50;9.32;;;;;;;-2.45;72.55;100331.16;6176559;23;20008;-68
2022/12/12 06:59:33;;;;;;;19.77;9.77;;;;;;;-2.43;72.63;100336.34;6177204;23;20044;-68
2022/12/12 07:01:59;;;;;;;16.20;9.25;;;;;;;-2.50;72.97;100341.09;6177204;23;20073;-70
2022/12/12 07:04:29;;;;;;;14.50;9.23;;;;;;;-2.41;73.17;100337.06;6179977;23;20053;-71
2022/12/12 07:06:55;;;;;;;19.38;10.05;;;;;;;-2.29;72.99;100343.44;6179084;23;20073;-74
2022/12/12 07:09:22;;;;;;;14.40;9.85;;;;;;;-2.38;73.00;100336.91;6180221;23;20461;-70
2022/12/12 07:11:48;;;;;;;14.55;9.60;;;;;;;-2.26;72.54;100346.72;6180045;23;20045;-72
2022/12/12 07:14:16;;;;;;;14.68;8.57;;;;;;;-2.53;73.21;100343.88;6180347;23;20077;-69
2022/12/12 07:16:42;;;;;;;20.38;10.05;;;;;;;-2.45;73.26;100346.06;6155775;23;20036;-72
2022/12/12 07:19:09;;;;;;;17.05;9.82;;;;;;;-2.37;72.90;100347.34;6180532;23;20041;-70
2022/12/12 07:21:35;;;;;;;24.02;10.35;;;;;;;-2.29;73.33;100346.06;6180035;23;20057;-71
2022/12/12 07:24:02;;;;;;;17.38;9.23;;;;;;;-2.19;72.65;100355.13;6180419;23;20068;-72
2022/12/12 07:26:28;;;;;;;16.42;10.10;;;;;;;-2.28;71.85;100358.25;6180663;23;20069;-73
2022/12/12 07:28:55;;;;;;;17.15;9.80;;;;;;;-2.26;72.12;100359.03;6181336;23;20028;-73
2022/12/12 07:31:25;;;;;;;19.50;9.32;;;;;;;-2.29;72.12;100360.03;6181920;23;20025;-71
2022/12/12 07:33:53;;;;;;;15.60;9.90;;;;;;;-2.32;72.13;100368.09;6181452;23;20017;-71
2022/12/12 07:36:19;;;;;;;13.10;8.80;;;;;;;-2.16;72.22;100368.09;6180375;23;20029;-72
2022/12/12 07:38:46;;;;;;;15.85;9.40;;;;;;;-2.10;71.70;100362.47;6180626;23;20085;-73
2022/12/12 07:41:16;;;;;;;15.68;9.48;;;;;;;-2.13;72.14;100363.50;6178549;23;20053;-72
2022/12/12 07:43:44;;;;;;;15.40;9.00;;;;;;;-1.95;70.91;100369.47;6179745;23;20014;-70
2022/12/12 07:46:17;;;;;;;14.35;9.32;;;;;;;-2.27;71.78;100365.19;6180619;23;20068;-72
2022/12/12 07:48:43;;;;;;;13.80;9.38;;;;;;;-2.33;71.82;100372.50;6179951;23;20016;-71
2022/12/12 07:51:11;;;;;;;15.52;8.75;;;;;;;-2.23;71.69;100379.88;6180257;23;20032;-70
2022/12/12 07:53:38;;;;;;;15.77;10.07;;;;;;;-2.30;72.34;100375.88;6165814;23;20001;-71
2022/12/12 07:56:06;;;;;;;15.57;8.95;;;;;;;-2.49;72.19;100376.06;6180174;23;20029;-72
2022/12/12 07:58:33;;;;;;;13.45;8.98;;;;;;;-2.26;71.10;100383.53;6179740;23;20081;-72
2022/12/12 08:01:00;;;;;;;19.08;9.70;;;;;;;-2.23;71.43;100385.97;6179071;23;20010;-72
2022/12/12 08:03:26;;;;;;;19.50;8.95;;;;;;;-2.46;71.73;100379.38;6179812;23;19998;-73
2022/12/12 08:05:53;;;;;;;14.52;8.50;;;;;;;-2.44;71.87;100388.03;6179580;23;20033;-71
2022/12/12 08:08:20;;;;;;;16.65;9.55;;;;;;;-2.17;71.06;100387.41;6178521;23;20016;-71
2022/12/12 08:10:47;;;;;;;15.75;8.80;;;;;;;-2.22;71.26;100390.28;6180068;23;20029;-70
2022/12/12 08:13:13;;;;;;;15.88;8.85;;;;;;;-2.39;72.06;100393.84;6179567;23;20025;-71
2022/12/12 08:15:41;;;;;;;16.73;9.18;;;;;;;-2.29;71.81;100394.19;6181327;23;20005;-70
2022/12/12 08:18:08;;;;;;;17.67;9.35;;;;;;;-2.24;71.18;100402.66;6180099;23;20065;-73
2022/12/12 08:20:38;;;;;;;14.30;9.10;;;;;;;-2.23;71.34;100403.53;6180956;23;20017;-73
2022/12/12 08:23:04;;;;;;;12.43;8.65;;;;;;;-2.19;71.06;100405.88;6181598;23;20407;-72
2022/12/12 08:25:32;;;;;;;13.85;8.98;;;;;;;-2.23;71.17;100414.03;6179677;23;20285;-74
2022/12/12 08:27:58;;;;;;;15.55;8.80;;;;;;;-2.14;70.91;100409.09;6177373;23;20022;-73
2022/12/12 08:30:25;;;;;;;17.02;9.77;;;;;;;-1.98;70.40;100419.59;6179636;23;20107;-70
2022/12/12 08:32:51;;;;;;;15.27;8.68;;;;;;;-2.25;71.02;100413.25;6179603;23;20077;-71
2022/12/12 08:35:18;;;;;;;20.73;9.10;;;;;;;-2.05;70.32;100413.00;6178577;23;20029;-71
2022/12/12 08:37:44;;;;;;;17.98;8.55;;;;;;;-2.13;71.01;100404.69;6180175;23;20001;-70
2022/12/12 08:40:11;;;;;;;21.80;8.85;;;;;;;-2.11;70.09;100424.69;6154465;23;20025;-70
2022/12/12 08:42:38;;;;;;;13.10;8.35;;;;;;;-2.10;70.05;100420.28;6178429;23;20037;-69
2022/12/12 08:45:05;;;;;;;14.05;8.25;;;;;;;-2.16;70.24;100416.22;6179888;23;20033;-70
2022/12/12 08:47:32;;;;;;;17.10;8.32;;;;;;;-1.96;69.55;100422.13;6180121;23;20020;-71
2022/12/12 08:49:58;;;;;;;16.48;8.93;;;;;;;-1.84;68.93;100425.84;6179342;23;20016;-73
2022/12/12 08:52:25;;;;;;;14.18;8.63;;;;;;;-1.90;69.23;100422.63;6180144;23;20002;-71
2022/12/12 08:54:51;;;;;;;13.38;8.25;;;;;;;-1.76;68.56;100434.13;6179381;23;20066;-70
2022/12/12 08:57:18;;;;;;;14.70;8.30;;;;;;;-1.94;69.23;100442.16;6155471;23;20009;-71
2022/12/12 08:59:51;;;;;;;13.50;8.23;;;;;;;-1.91;68.95;100436.72;6179924;23;20025;-71
2022/12/12 09:02:17;;;;;;;14.93;8.45;;;;;;;-1.67;67.89;100441.50;6178565;23;20041;-71
2022/12/12 09:04:44;;;;;;;13.52;7.88;;;;;;;-1.88;68.20;100444.44;6178676;23;20017;-70
2022/12/12 09:07:11;;;;;;;12.55;7.22;;;;;;;-1.73;67.96;100444.50;6179097;23;20029;-70
2022/12/12 09:09:37;;;;;;;10.65;7.45;;;;;;;-1.70;68.04;100446.94;6179768;23;20021;-70
2022/12/12 09:12:04;;;;;;;12.98;7.40;;;;;;;-1.74;68.77;100453.31;6179308;23;20012;-70
2022/12/12 09:14:31;;;;;;;12.30;7.95;;;;;;;-1.78;68.94;100457.03;6154611;23;20036;-73
2022/12/12 09:16:58;;;;;;;11.77;7.82;;;;;;;-1.62;68.30;100452.59;6180154;23;20013;-72
2022/12/12 09:19:24;;;;;;;12.52;7.75;;;;;;;-1.80;67.97;100465.03;6180016;23;20026;-70
2022/12/12 09:21:51;;;;;;;10.82;7.05;;;;;;;-1.66;67.26;100458.97;6179736;23;20040;-73
2022/12/12 09:24:18;;;;;;;12.55;7.32;;;;;;;-1.99;68.28;100464.34;6180400;23;20029;-72
2022/12/12 09:26:45;;;;;;;10.73;7.07;;;;;;;-1.91;67.52;100462.16;6178714;23;20006;-70
2022/12/12 09:29:11;;;;;;;12.18;7.45;;;;;;;-1.73;67.13;100463.75;6179322;23;20044;-69
2022/12/12 09:31:38;;;;;;;11.68;6.50;;;;;;;-1.89;67.80;100463.78;6175196;23;20096;-70
2022/12/12 09:34:05;;;;;;;13.23;7.50;;;;;;;-1.73;66.39;100465.53;6177797;23;20013;-68
2022/12/12 09:36:31;;;;;;;11.45;6.68;;;;;;;-1.72;66.44;100456.69;6178180;23;20056;-72
2022/12/12 09:38:58;;;;;;;8.93;6.20;;;;;;;-1.78;65.95;100459.66;6179312;23;20009;-69
2022/12/12 09:41:26;;;;;;;10.77;6.82;;;;;;;-1.72;65.85;100464.59;6184744;23;20027;-71
2022/12/12 09:43:58;;;;;;;14.68;6.55;;;;;;;-2.02;66.90;100462.78;6179348;23;20026;-69
2022/12/12 09:46:33;;;;;;;8.18;5.78;;;;;;;-2.10;66.76;100463.22;6178766;23;20021;-69
2022/12/12 09:49:33;;;;;;;9.80;6.10;;;;;;;-1.80;66.28;100464.19;6178258;23;20041;-74
2022/12/12 09:52:13;;;;;;;12.52;6.43;;;;;;;-1.54;64.63;100465.31;6178101;23;19997;-70
2022/12/12 09:54:39;;;;;;;13.15;6.10;;;;;;;-1.34;64.60;100456.25;6175927;23;20089;-69
2022/12/12 09:57:19;;;;;;;10.18;5.85;;;;;;;-1.50;64.54;100462.44;6179920;23;20013;-71
2022/12/12 09:59:54;;;;;;;9.30;6.13;;;;;;;-1.31;63.86;100451.66;6177660;23;20064;-71
2022/12/12 10:02:47;;;;;;;8.80;5.82;;;;;;;-1.42;63.45;100457.56;6178440;23;20045;-71
2022/12/12 10:05:25;;;;;;;10.80;6.40;;;;;;;-1.54;64.55;100460.91;6172571;23;20017;-70
2022/12/12 10:08:01;;;;;;;12.00;6.22;;;;;;;-1.48;63.69;100459.69;6177481;23;20036;-72
2022/12/12 10:10:33;;;;;;;13.75;5.25;;;;;;;-1.18;62.99;100457.03;6178136;23;20053;-69
2022/12/12 10:13:03;;;;;;;9.85;6.05;;;;;;;-0.78;62.12;100455.50;6179681;23;20022;-70
2022/12/12 10:15:40;;;;;;;11.40;5.50;;;;;;;-0.48;60.87;100455.38;6178052;23;20069;-69
2022/12/12 10:18:15;;;;;;;8.45;5.25;;;;;;;-0.09;59.80;100459.06;6177740;23;20025;-73
2022/12/12 10:20:50;;;;;;;8.57;5.78;;;;;;;-0.39;59.63;100463.66;6178495;23;20447;-70
2022/12/12 10:23:25;;;;;;;10.95;5.35;;;;;;;0.04;58.97;100459.97;6178248;23;20057;-70
2022/12/12 10:26:07;;;;;;;8.32;5.00;;;;;;;-0.75;60.67;100460.56;6177607;23;20029;-70
2022/12/12 10:28:34;;;;;;;9.52;5.50;;;;;;;-0.93;60.47;100466.94;6176285;23;20032;-70
2022/12/12 10:31:22;;;;;;;8.00;5.20;;;;;;;-0.85;60.60;100469.09;6177109;23;20081;-69
2022/12/12 10:34:13;;;;;;;7.15;5.07;;;;;;;-0.57;59.46;100469.13;6182808;23;20032;-72
2022/12/12 10:37:08;;;;;;;10.15;4.85;;;;;;;-0.24;58.27;100476.72;6176308;23;20018;-71
2022/12/12 10:39:54;;;;;;;7.32;4.82;;;;;;;-0.13;58.48;100476.03;6175780;23;20006;-74
2022/12/12 10:42:40;;;;;;;7.15;4.90;;;;;;;-0.48;58.57;100473.81;6176265;23;20014;-71
2022/12/12 10:45:31;;;;;;;10.77;5.18;;;;;;;-0.07;57.71;100467.72;6177662;23;20061;-72
2022/12/12 10:47:58;;;;;;;6.00;4.45;;;;;;;-0.26;57.43;100462.78;6176683;23;20021;-70
2022/12/12 10:50:32;;;;;;;7.15;5.03;;;;;;;-0.08;57.54;100460.78;6162844;23;20089;-69
2022/12/12 10:53:02;;;;;;;7.45;4.90;;;;;;;-0.23;57.88;100467.00;6181159;23;20077;-70
2022/12/12 10:55:53;;;;;;;7.95;4.90;;;;;;;-0.36;58.10;100469.59;6176636;23;20025;-70
2022/12/12 10:58:37;;;;;;;14.40;5.22;;;;;;;-0.32;57.82;100470.25;6167620;23;20025;-70
2022/12/12 11:01:20;;;;;;;8.70;5.30;;;;;;;0.16;56.43;100468.06;6205063;23;20036;-68
2022/12/12 11:04:07;;;;;;;10.13;4.70;;;;;;;-0.07;56.18;100467.72;6190512;23;20024;-71
2022/12/12 11:06:47;;;;;;;7.20;4.85;;;;;;;-0.73;58.16;100460.47;6205498;23;20068;-70
2022/12/12 11:09:24;;;;;;;9.98;5.63;;;;;;;-0.82;58.71;100467.13;6207032;23;20028;-69
2022/12/12 11:12:11;;;;;;;8.55;5.25;;;;;;;-0.98;59.38;100466.41;6205135;23;20024;-71
2022/12/12 11:14:43;;;;;;;8.95;5.55;;;;;;;-0.96;58.98;100467.13;6204706;23;20028;-73
2022/12/12 11:17:28;;;;;;;7.35;4.90;;;;;;;-1.03;58.62;100476.34;6205113;23;20104;-69
2022/12/12 11:20:00;;;;;;;11.98;5.03;;;;;;;-0.66;56.99;100467.91;6204228;23;20025;-69
2022/12/12 11:22:31;;;;;;;7.18;4.90;;;;;;;-0.30;55.89;100471.81;6204483;23;20028;-70
2022/12/12 11:25:01;;;;;;;8.90;5.20;;;;;;;-0.39;55.70;100467.16;6202809;23;20032;-69
2022/12/12 11:27:31;;;;;;;8.48;5.30;;;;;;;0.15;54.96;100463.72;6203495;23;20040;-68
2022/12/12 11:30:02;;;;;;;10.55;5.53;;;;;;;0.39;53.67;100464.75;6202099;23;20025;-69
2022/12/12 11:32:39;;;;;;;8.88;5.75;;;;;;;0.35;53.66;100467.69;6202458;23;20094;-69
2022/12/12 11:35:25;;;;;;;9.98;5.65;;;;;;;0.34;53.74;100458.94;6202844;23;20070;-74
2022/12/12 11:37:56;;;;;;;8.35;5.72;;;;;;;0.29;53.72;100463.66;6206644;23;20017;-70
2022/12/12 11:40:27;;;;;;;9.35;5.63;;;;;;;0.71;52.50;100467.03;6207394;23;20023;-69
2022/12/12 11:43:21;;;;;;;9.13;5.70;;;;;;;0.49;53.26;100460.53;6205607;23;20079;-69
2022/12/12 11:46:25;;;;;;;8.35;5.47;;;;;;;0.46;52.57;100466.03;6208122;23;20064;-69
2022/12/12 11:48:51;;;;;;;8.10;5.60;;;;;;;0.20;52.32;100464.28;6162245;23;20029;-72
2022/12/12 11:51:42;;;;;;;11.05;5.30;;;;;;;-0.23;54.50;100464.38;6207942;23;20000;-70